createdAt,value
2016-09-08T00:00:47.867Z,0
2016-09-08T00:01:47.869Z,0
2016-09-08T00:02:47.868Z,0
2016-09-08T00:03:48.116Z,0
2016-09-08T00:04:47.872Z,0
2016-09-08T00:05:47.881Z,0
2016-09-08T00:06:47.874Z,0
2016-09-08T00:07:47.880Z,0
2016-09-08T00:08:47.899Z,0
2016-09-08T00:09:47.881Z,0
2016-09-08T00:10:48.133Z,0
2016-09-08T00:11:47.892Z,0
2016-09-08T00:12:47.879Z,0
2016-09-08T00:13:47.878Z,0
2016-09-08T00:14:48.198Z,0
2016-09-08T00:15:47.885Z,0
2016-09-08T00:16:48.194Z,0
2016-09-08T00:17:47.885Z,0
2016-09-08T00:18:47.884Z,0
2016-09-08T00:19:47.886Z,0
2016-09-08T00:20:47.890Z,0
2016-09-08T00:21:47.890Z,0
2016-09-08T00:22:48.204Z,0
2016-09-08T00:23:47.896Z,0
2016-09-08T00:24:47.909Z,0
2016-09-08T00:25:47.894Z,0
2016-09-08T00:26:47.891Z,0
2016-09-08T00:27:48.209Z,0
2016-09-08T00:28:47.902Z,0
2016-09-08T00:29:47.911Z,0
2016-09-08T00:30:47.904Z,0
2016-09-08T00:31:47.929Z,0
2016-09-08T00:32:47.995Z,0
2016-09-08T00:33:48.000Z,0
2016-09-08T00:34:47.915Z,0
2016-09-08T00:35:47.902Z,0
2016-09-08T00:36:47.916Z,0
2016-09-08T00:37:47.916Z,0
2016-09-08T00:38:47.928Z,0
2016-09-08T00:39:47.917Z,0
2016-09-08T00:40:47.919Z,0
2016-09-08T00:41:47.925Z,0
2016-09-08T00:42:47.919Z,0
2016-09-08T00:43:47.921Z,0
2016-09-08T00:44:47.931Z,0
2016-09-08T00:45:47.919Z,0
2016-09-08T00:46:47.924Z,0
2016-09-08T00:47:47.921Z,0
2016-09-08T00:48:47.931Z,0
2016-09-08T00:49:48.235Z,0
2016-09-08T00:50:47.933Z,0
2016-09-08T00:51:47.938Z,0
2016-09-08T00:52:47.935Z,0
2016-09-08T00:53:47.934Z,0
2016-09-08T00:54:47.947Z,0
2016-09-08T00:55:47.937Z,0
2016-09-08T00:56:47.937Z,0
2016-09-08T00:57:48.184Z,0
2016-09-08T00:58:48.249Z,0
2016-09-08T00:59:48.190Z,0
2016-09-08T01:00:47.939Z,0
2016-09-08T01:01:47.939Z,0
2016-09-08T01:02:47.951Z,0
2016-09-08T01:03:47.941Z,0
2016-09-08T01:04:47.940Z,0
2016-09-08T01:05:47.944Z,0
2016-09-08T01:06:47.942Z,0
2016-09-08T01:07:47.946Z,0
2016-09-08T01:08:47.944Z,0
2016-09-08T01:09:47.943Z,0
2016-09-08T01:10:47.947Z,0
2016-09-08T01:11:47.948Z,0
2016-09-08T01:12:47.944Z,0
2016-09-08T01:13:47.948Z,0
2016-09-08T01:14:47.947Z,0
2016-09-08T01:15:47.950Z,0
2016-09-08T01:16:47.950Z,0
2016-09-08T01:17:47.948Z,0
2016-09-08T01:18:47.953Z,0
2016-09-08T01:19:47.959Z,0
2016-09-08T01:20:47.949Z,0
2016-09-08T01:21:47.952Z,0
2016-09-08T01:22:47.949Z,0
2016-09-08T01:23:47.955Z,0
2016-09-08T01:24:47.953Z,0
2016-09-08T01:25:47.952Z,0
2016-09-08T01:26:47.955Z,0
2016-09-08T01:27:47.953Z,0
2016-09-08T01:28:47.963Z,0
2016-09-08T01:29:47.961Z,0
2016-09-08T01:30:47.985Z,0
2016-09-08T01:31:47.958Z,0
2016-09-08T01:32:48.448Z,0
2016-09-08T01:33:47.955Z,0
2016-09-08T01:34:48.006Z,0
2016-09-08T01:35:47.957Z,0
2016-09-08T01:36:47.962Z,0
2016-09-08T01:37:47.961Z,0
2016-09-08T01:38:47.959Z,0
2016-09-08T01:39:48.273Z,0
2016-09-08T01:40:47.963Z,0
2016-09-08T01:41:47.968Z,0
2016-09-08T01:42:47.963Z,0
2016-09-08T01:43:47.963Z,0
2016-09-08T01:44:47.966Z,0
2016-09-08T01:45:47.975Z,0
2016-09-08T01:46:47.975Z,0
2016-09-08T01:47:48.455Z,0
2016-09-08T01:48:47.969Z,0
2016-09-08T01:49:48.220Z,0
2016-09-08T01:50:47.965Z,0
2016-09-08T01:51:47.974Z,0
2016-09-08T01:52:47.963Z,0
2016-09-08T01:53:47.969Z,0
2016-09-08T01:54:47.966Z,0
2016-09-08T01:55:47.971Z,0
2016-09-08T01:56:47.968Z,0
2016-09-08T01:57:47.971Z,0
2016-09-08T01:58:48.524Z,0
2016-09-08T01:59:47.970Z,0
2016-09-08T02:00:47.969Z,0
2016-09-08T02:01:47.977Z,0
2016-09-08T02:02:47.973Z,0
2016-09-08T02:03:47.985Z,0
2016-09-08T02:04:48.287Z,0
2016-09-08T02:05:47.974Z,0
2016-09-08T02:06:47.984Z,0
2016-09-08T02:07:47.976Z,0
2016-09-08T02:08:48.298Z,0
2016-09-08T02:09:47.982Z,0
2016-09-08T02:10:47.977Z,0
2016-09-08T02:11:47.996Z,0
2016-09-08T02:12:47.981Z,0
2016-09-08T02:13:47.974Z,0
2016-09-08T02:14:47.979Z,0
2016-09-08T02:15:47.977Z,0
2016-09-08T02:16:47.981Z,0
2016-09-08T02:17:47.978Z,0
2016-09-08T02:18:48.225Z,0
2016-09-08T02:19:47.981Z,0
2016-09-08T02:20:48.304Z,0
2016-09-08T02:21:47.980Z,0
2016-09-08T02:22:47.985Z,0
2016-09-08T02:23:48.300Z,0
2016-09-08T02:24:47.981Z,0
2016-09-08T02:25:47.984Z,0
2016-09-08T02:26:48.002Z,0
2016-09-08T02:27:48.235Z,0
2016-09-08T02:28:47.985Z,0
2016-09-08T02:29:47.987Z,0
2016-09-08T02:30:47.991Z,0
2016-09-08T02:31:47.987Z,0
2016-09-08T02:32:47.988Z,0
2016-09-08T02:33:48.008Z,0
2016-09-08T02:34:47.989Z,0
2016-09-08T02:35:47.990Z,0
2016-09-08T02:36:47.988Z,0
2016-09-08T02:37:47.998Z,0
2016-09-08T02:38:47.991Z,0
2016-09-08T02:39:48.303Z,0
2016-09-08T02:40:47.988Z,0
2016-09-08T02:41:47.997Z,0
2016-09-08T02:42:47.991Z,0
2016-09-08T02:43:47.994Z,0
2016-09-08T02:44:47.994Z,0
2016-09-08T02:45:47.993Z,0
2016-09-08T02:46:47.996Z,0
2016-09-08T02:47:47.994Z,0
2016-09-08T02:48:47.994Z,0
2016-09-08T02:49:48.000Z,0
2016-09-08T02:50:47.994Z,0
2016-09-08T02:51:47.999Z,0
2016-09-08T02:52:47.996Z,0
2016-09-08T02:53:48.001Z,0
2016-09-08T02:54:48.307Z,0
2016-09-08T02:55:47.998Z,0
2016-09-08T02:56:48.018Z,0
2016-09-08T02:57:47.990Z,0
2016-09-08T02:58:48.000Z,0
2016-09-08T02:59:48.002Z,0
2016-09-08T03:00:48.001Z,0
2016-09-08T03:01:47.999Z,0
2016-09-08T03:02:48.005Z,0
2016-09-08T03:03:48.311Z,0
2016-09-08T03:04:48.001Z,0
2016-09-08T03:05:48.006Z,0
2016-09-08T03:06:48.003Z,0
2016-09-08T03:07:48.007Z,0
2016-09-08T03:08:48.009Z,0
2016-09-08T03:09:48.005Z,0
2016-09-08T03:10:48.008Z,0
2016-09-08T03:11:48.024Z,0
2016-09-08T03:12:48.004Z,0
2016-09-08T03:13:48.008Z,0
2016-09-08T03:14:48.248Z,0
2016-09-08T03:15:48.000Z,0
2016-09-08T03:16:48.011Z,0
2016-09-08T03:17:48.011Z,0
2016-09-08T03:18:48.014Z,0
2016-09-08T03:19:47.999Z,0
2016-09-08T03:20:48.010Z,0
2016-09-08T03:21:48.013Z,0
2016-09-08T03:22:48.011Z,0
2016-09-08T03:23:48.003Z,0
2016-09-08T03:24:48.016Z,0
2016-09-08T03:25:48.013Z,0
2016-09-08T03:26:48.017Z,0
2016-09-08T03:27:48.319Z,0
2016-09-08T03:28:48.017Z,0
2016-09-08T03:29:48.018Z,0
2016-09-08T03:30:48.017Z,0
2016-09-08T03:31:48.019Z,0
2016-09-08T03:32:48.007Z,0
2016-09-08T03:33:48.326Z,0
2016-09-08T03:34:48.055Z,0
2016-09-08T03:35:48.023Z,0
2016-09-08T03:36:48.019Z,0
2016-09-08T03:37:48.021Z,0
2016-09-08T03:38:48.019Z,0
2016-09-08T03:39:48.327Z,0
2016-09-08T03:40:48.325Z,0
2016-09-08T03:41:48.020Z,0
2016-09-08T03:42:48.013Z,0
2016-09-08T03:43:48.012Z,0
2016-09-08T03:44:48.255Z,0
2016-09-08T03:45:48.014Z,0
2016-09-08T03:46:48.013Z,0
2016-09-08T03:47:48.020Z,0
2016-09-08T03:48:48.325Z,0
2016-09-08T03:49:47.999Z,0
2016-09-08T03:50:48.004Z,0
2016-09-08T03:51:47.999Z,0
2016-09-08T03:52:47.993Z,0
2016-09-08T03:53:48.018Z,0
2016-09-08T03:54:48.019Z,0
2016-09-08T03:55:48.005Z,0
2016-09-08T03:56:48.003Z,0
2016-09-08T03:57:48.019Z,0
2016-09-08T03:58:48.004Z,0
2016-09-08T03:59:47.997Z,0
2016-09-08T04:00:48.002Z,0
2016-09-08T04:01:47.995Z,0
2016-09-08T04:02:47.997Z,0
2016-09-08T04:03:47.992Z,0
2016-09-08T04:04:48.003Z,0
2016-09-08T04:05:48.001Z,0
2016-09-08T04:06:48.005Z,0
2016-09-08T04:07:47.999Z,0
2016-09-08T04:08:47.995Z,0
2016-09-08T04:09:48.001Z,0
2016-09-08T04:10:48.308Z,0
2016-09-08T04:11:48.014Z,0
2016-09-08T04:12:48.004Z,0
2016-09-08T04:13:48.000Z,0
2016-09-08T04:14:48.001Z,0
2016-09-08T04:15:48.005Z,0
2016-09-08T04:16:47.997Z,0
2016-09-08T04:17:47.995Z,0
2016-09-08T04:18:48.002Z,0
2016-09-08T04:19:48.314Z,0
2016-09-08T04:20:48.242Z,0
2016-09-08T04:21:48.003Z,0
2016-09-08T04:22:48.000Z,0
2016-09-08T04:23:48.009Z,0
2016-09-08T04:24:48.312Z,0
2016-09-08T04:25:47.998Z,0
2016-09-08T04:26:47.999Z,0
2016-09-08T04:27:48.029Z,0
2016-09-08T04:28:48.005Z,0
2016-09-08T04:29:47.999Z,0
2016-09-08T04:30:47.991Z,0
2016-09-08T04:31:48.003Z,0
2016-09-08T04:32:48.007Z,0
2016-09-08T04:33:47.994Z,0
2016-09-08T04:34:48.000Z,0
2016-09-08T04:35:48.005Z,0
2016-09-08T04:36:47.993Z,0
2016-09-08T04:37:47.993Z,0
2016-09-08T04:38:48.326Z,0
2016-09-08T04:39:47.993Z,0
2016-09-08T04:40:47.993Z,0
2016-09-08T04:41:47.997Z,0
2016-09-08T04:42:47.998Z,0
2016-09-08T04:43:47.997Z,0
2016-09-08T04:44:47.996Z,5
2016-09-08T04:45:48.003Z,5
2016-09-08T04:46:47.997Z,5
2016-09-08T04:47:48.308Z,5
2016-09-08T04:48:47.996Z,5
2016-09-08T04:49:47.999Z,5
2016-09-08T04:50:48.001Z,5
2016-09-08T04:51:48.326Z,10
2016-09-08T04:52:48.004Z,10
2016-09-08T04:53:48.005Z,10
2016-09-08T04:54:48.002Z,10
2016-09-08T04:55:48.000Z,10
2016-09-08T04:56:48.001Z,15
2016-09-08T04:57:47.993Z,15
2016-09-08T04:58:48.005Z,15
2016-09-08T04:59:48.302Z,15
2016-09-08T05:00:48.005Z,15
2016-09-08T05:01:48.009Z,20
2016-09-08T05:02:48.007Z,20
2016-09-08T05:03:47.994Z,20
2016-09-08T05:04:48.004Z,20
2016-09-08T05:05:48.235Z,25
2016-09-08T05:06:47.998Z,25
2016-09-08T05:07:48.012Z,25
2016-09-08T05:08:47.988Z,25
2016-09-08T05:09:47.997Z,30
2016-09-08T05:10:47.991Z,30
2016-09-08T05:11:48.000Z,30
2016-09-08T05:12:47.991Z,35
2016-09-08T05:13:48.005Z,35
2016-09-08T05:14:48.001Z,35
2016-09-08T05:15:47.996Z,40
2016-09-08T05:16:48.004Z,40
2016-09-08T05:17:47.991Z,40
2016-09-08T05:18:47.996Z,50
2016-09-08T05:19:47.993Z,60
2016-09-08T05:20:48.002Z,75
2016-09-08T05:21:47.997Z,80
2016-09-08T05:22:47.996Z,80
2016-09-08T05:23:48.622Z,85
2016-09-08T05:24:47.997Z,90
2016-09-08T05:25:48.017Z,95
2016-09-08T05:26:47.999Z,95
2016-09-08T05:27:48.009Z,100
2016-09-08T05:28:47.995Z,105
2016-09-08T05:29:48.037Z,105
2016-09-08T05:30:48.020Z,105
2016-09-08T05:31:48.049Z,115
2016-09-08T05:32:48.003Z,105
2016-09-08T05:33:48.011Z,105
2016-09-08T05:34:48.013Z,70
2016-09-08T05:35:48.003Z,100
2016-09-08T05:36:48.024Z,105
2016-09-08T05:37:48.261Z,105
2016-09-08T05:38:48.025Z,100
2016-09-08T05:39:48.033Z,100
2016-09-08T05:40:48.037Z,100
2016-09-08T05:41:48.030Z,100
2016-09-08T05:42:48.032Z,95
2016-09-08T05:43:48.027Z,95
2016-09-08T05:44:48.026Z,90
2016-09-08T05:45:48.037Z,95
2016-09-08T05:46:48.029Z,95
2016-09-08T05:47:48.039Z,95
2016-09-08T05:48:48.340Z,95
2016-09-08T05:49:48.354Z,95
2016-09-08T05:50:48.033Z,95
2016-09-08T05:51:48.031Z,95
2016-09-08T05:52:48.356Z,95
2016-09-08T05:53:48.034Z,100
2016-09-08T05:54:48.357Z,100
2016-09-08T05:55:48.037Z,100
2016-09-08T05:56:48.046Z,100
2016-09-08T05:57:48.047Z,100
2016-09-08T05:58:48.044Z,100
2016-09-08T05:59:48.051Z,100
2016-09-08T06:00:48.055Z,100
2016-09-08T06:01:48.054Z,100
2016-09-08T06:02:48.059Z,100
2016-09-08T06:03:48.057Z,100
2016-09-08T06:04:48.045Z,105
2016-09-08T06:05:48.054Z,105
2016-09-08T06:06:48.053Z,105
2016-09-08T06:07:48.066Z,105
2016-09-08T06:08:48.052Z,105
2016-09-08T06:09:48.100Z,105
2016-09-08T06:10:48.311Z,110
2016-09-08T06:11:48.057Z,110
2016-09-08T06:12:48.060Z,110
2016-09-08T06:13:48.063Z,110
2016-09-08T06:14:48.057Z,110
2016-09-08T06:15:48.052Z,115
2016-09-08T06:16:48.126Z,115
2016-09-08T06:17:48.054Z,120
2016-09-08T06:18:48.060Z,125
2016-09-08T06:19:48.063Z,130
2016-09-08T06:20:48.064Z,135
2016-09-08T06:21:48.063Z,140
2016-09-08T06:22:48.064Z,140
2016-09-08T06:23:48.068Z,140
2016-09-08T06:24:48.063Z,145
2016-09-08T06:25:48.394Z,145
2016-09-08T06:26:48.065Z,150
2016-09-08T06:27:48.322Z,155
2016-09-08T06:28:48.070Z,165
2016-09-08T06:29:48.614Z,175
2016-09-08T06:30:48.070Z,185
2016-09-08T06:31:48.073Z,195
2016-09-08T06:32:48.073Z,200
2016-09-08T06:33:48.068Z,200
2016-09-08T06:34:48.082Z,195
2016-09-08T06:35:48.076Z,185
2016-09-08T06:36:48.088Z,185
2016-09-08T06:37:48.087Z,185
2016-09-08T06:38:48.081Z,195
2016-09-08T06:39:48.137Z,195
2016-09-08T06:40:48.188Z,205
2016-09-08T06:41:48.106Z,215
2016-09-08T06:42:48.098Z,215
2016-09-08T06:43:48.426Z,225
2016-09-08T06:44:48.107Z,230
2016-09-08T06:45:48.125Z,230
2016-09-08T06:46:48.122Z,235
2016-09-08T06:47:48.416Z,235
2016-09-08T06:48:48.120Z,235
2016-09-08T06:49:48.111Z,235
2016-09-08T06:50:48.122Z,235
2016-09-08T06:51:48.378Z,240
2016-09-08T06:52:48.135Z,240
2016-09-08T06:53:48.169Z,240
2016-09-08T06:54:48.144Z,240
2016-09-08T06:55:48.139Z,245
2016-09-08T06:56:48.170Z,250
2016-09-08T06:57:48.155Z,245
2016-09-08T06:58:48.797Z,245
2016-09-08T06:59:48.176Z,190
2016-09-08T07:00:48.477Z,240
2016-09-08T07:01:48.186Z,230
2016-09-08T07:02:48.176Z,210
2016-09-08T07:03:48.174Z,210
2016-09-08T07:04:48.179Z,210
2016-09-08T07:05:48.187Z,210
2016-09-08T07:06:48.203Z,200
2016-09-08T07:07:48.195Z,200
2016-09-08T07:08:48.208Z,200
2016-09-08T07:09:48.211Z,200
2016-09-08T07:10:48.205Z,195
2016-09-08T07:11:48.217Z,190
2016-09-08T07:12:48.467Z,185
2016-09-08T07:13:48.558Z,195
2016-09-08T07:14:48.242Z,205
2016-09-08T07:15:48.245Z,210
2016-09-08T07:16:48.248Z,215
2016-09-08T07:17:48.244Z,235
2016-09-08T07:18:48.261Z,245
2016-09-08T07:19:48.250Z,250
2016-09-08T07:20:48.565Z,255
2016-09-08T07:21:48.258Z,255
2016-09-08T07:22:48.261Z,260
2016-09-08T07:23:48.275Z,260
2016-09-08T07:24:48.269Z,260
2016-09-08T07:25:48.285Z,265
2016-09-08T07:26:48.294Z,265
2016-09-08T07:27:48.293Z,260
2016-09-08T07:28:48.312Z,260
2016-09-08T07:29:48.313Z,260
2016-09-08T07:30:48.311Z,260
2016-09-08T07:31:48.318Z,260
2016-09-08T07:32:48.864Z,265
2016-09-08T07:33:48.320Z,265
2016-09-08T07:34:48.655Z,260
2016-09-08T07:35:48.334Z,260
2016-09-08T07:36:48.355Z,260
2016-09-08T07:37:48.349Z,260
2016-09-08T07:38:48.363Z,260
2016-09-08T07:39:48.365Z,255
2016-09-08T07:40:48.373Z,250
2016-09-08T07:41:48.381Z,245
2016-09-08T07:42:48.687Z,235
2016-09-08T07:43:48.403Z,215
2016-09-08T07:44:48.394Z,205
2016-09-08T07:45:48.406Z,195
2016-09-08T07:46:48.409Z,195
2016-09-08T07:47:48.419Z,195
2016-09-08T07:48:48.759Z,200
2016-09-08T07:49:48.430Z,205
2016-09-08T07:50:48.439Z,200
2016-09-08T07:51:48.433Z,195
2016-09-08T07:52:48.443Z,195
2016-09-08T07:53:48.450Z,190
2016-09-08T07:54:48.461Z,190
2016-09-08T07:55:48.464Z,190
2016-09-08T07:56:48.470Z,190
2016-09-08T07:57:48.491Z,195
2016-09-08T07:58:48.786Z,205
2016-09-08T07:59:48.482Z,215
2016-09-08T08:00:48.499Z,225
2016-09-08T08:01:48.498Z,235
2016-09-08T08:02:48.500Z,235
2016-09-08T08:03:48.515Z,235
2016-09-08T08:04:48.499Z,235
2016-09-08T08:05:48.523Z,240
2016-09-08T08:06:48.527Z,240
2016-09-08T08:07:48.518Z,235
2016-09-08T08:08:48.847Z,235
2016-09-08T08:09:48.533Z,235
2016-09-08T08:10:48.537Z,235
2016-09-08T08:11:48.546Z,235
2016-09-08T08:12:48.885Z,235
2016-09-08T08:13:48.573Z,235
2016-09-08T08:14:48.575Z,235
2016-09-08T08:15:48.572Z,235
2016-09-08T08:16:48.598Z,235
2016-09-08T08:17:48.581Z,235
2016-09-08T08:18:48.575Z,230
2016-09-08T08:19:48.600Z,230
2016-09-08T08:20:48.600Z,230
2016-09-08T08:21:48.911Z,230
2016-09-08T08:22:48.922Z,230
2016-09-08T08:23:48.626Z,230
2016-09-08T08:24:48.627Z,225
2016-09-08T08:25:48.627Z,225
2016-09-08T08:26:48.653Z,225
2016-09-08T08:27:48.648Z,225
2016-09-08T08:28:48.659Z,225
2016-09-08T08:29:48.664Z,225
2016-09-08T08:30:48.657Z,220
2016-09-08T08:31:48.669Z,220
2016-09-08T08:32:48.666Z,220
2016-09-08T08:33:48.671Z,220
2016-09-08T08:34:48.708Z,225
2016-09-08T08:35:48.698Z,215
2016-09-08T08:36:48.694Z,215
2016-09-08T08:37:48.698Z,215
2016-09-08T08:38:49.658Z,215
2016-09-08T08:39:48.717Z,215
2016-09-08T08:40:48.717Z,215
2016-09-08T08:41:48.720Z,215
2016-09-08T08:42:48.747Z,215
2016-09-08T08:43:48.748Z,215
2016-09-08T08:44:48.999Z,215
2016-09-08T08:45:48.744Z,220
2016-09-08T08:46:48.749Z,215
2016-09-08T08:47:49.318Z,215
2016-09-08T08:48:48.753Z,215
2016-09-08T08:49:49.070Z,215
2016-09-08T08:50:48.769Z,210
2016-09-08T08:51:48.776Z,210
2016-09-08T08:52:49.017Z,210
2016-09-08T08:53:48.777Z,210
2016-09-08T08:54:48.781Z,210
2016-09-08T08:55:48.810Z,210
2016-09-08T08:56:48.809Z,210
2016-09-08T08:57:48.820Z,210
2016-09-08T08:58:48.813Z,205
2016-09-08T08:59:48.821Z,205
2016-09-08T09:00:48.834Z,205
2016-09-08T09:01:48.820Z,205
2016-09-08T09:02:48.825Z,200
2016-09-08T09:03:48.823Z,200
2016-09-08T09:04:48.849Z,200
2016-09-08T09:05:48.836Z,200
2016-09-08T09:06:48.852Z,205
2016-09-08T09:07:48.839Z,200
2016-09-08T09:08:48.838Z,200
2016-09-08T09:09:48.844Z,200
2016-09-08T09:10:49.091Z,200
2016-09-08T09:11:48.859Z,200
2016-09-08T09:12:48.861Z,200
2016-09-08T09:13:49.190Z,200
2016-09-08T09:14:48.865Z,200
2016-09-08T09:15:49.091Z,200
2016-09-08T09:16:48.888Z,200
2016-09-08T09:17:48.892Z,200
2016-09-08T09:18:48.895Z,200
2016-09-08T09:19:48.894Z,200
2016-09-08T09:20:49.160Z,200
2016-09-08T09:21:48.897Z,195
2016-09-08T09:22:48.899Z,200
2016-09-08T09:23:48.897Z,200
2016-09-08T09:24:48.918Z,200
2016-09-08T09:25:48.910Z,200
2016-09-08T09:26:48.923Z,195
2016-09-08T09:27:48.922Z,195
2016-09-08T09:28:49.239Z,195
2016-09-08T09:29:49.173Z,195
2016-09-08T09:30:48.954Z,195
2016-09-08T09:31:48.936Z,195
2016-09-08T09:32:48.974Z,195
2016-09-08T09:33:48.955Z,195
2016-09-08T09:34:48.966Z,195
2016-09-08T09:35:48.960Z,195
2016-09-08T09:36:48.956Z,195
2016-09-08T09:37:49.208Z,195
2016-09-08T09:38:48.992Z,195
2016-09-08T09:39:48.970Z,195
2016-09-08T09:40:49.005Z,195
2016-09-08T09:41:48.987Z,195
2016-09-08T09:42:48.998Z,195
2016-09-08T09:43:48.987Z,195
2016-09-08T09:44:49.002Z,195
2016-09-08T09:45:48.992Z,195
2016-09-08T09:46:49.002Z,195
2016-09-08T09:47:49.003Z,190
2016-09-08T09:48:49.022Z,195
2016-09-08T09:49:49.054Z,190
2016-09-08T09:50:49.034Z,195
2016-09-08T09:51:49.032Z,195
2016-09-08T09:52:49.025Z,195
2016-09-08T09:53:49.033Z,195
2016-09-08T09:54:49.041Z,195
2016-09-08T09:55:49.055Z,195
2016-09-08T09:56:49.047Z,195
2016-09-08T09:57:49.074Z,195
2016-09-08T09:58:49.079Z,195
2016-09-08T09:59:49.080Z,195
2016-09-08T10:00:49.078Z,195
2016-09-08T10:01:49.383Z,195
2016-09-08T10:02:49.096Z,195
2016-09-08T10:03:49.101Z,195
2016-09-08T10:04:49.098Z,195
2016-09-08T10:05:49.096Z,195
2016-09-08T10:06:49.098Z,195
2016-09-08T10:07:49.102Z,195
2016-09-08T10:08:49.099Z,195
2016-09-08T10:09:49.100Z,195
2016-09-08T10:10:49.359Z,190
2016-09-08T10:11:49.114Z,190
2016-09-08T10:12:49.142Z,190
2016-09-08T10:13:49.141Z,190
2016-09-08T10:14:49.149Z,190
2016-09-08T10:15:49.145Z,190
2016-09-08T10:16:49.140Z,190
2016-09-08T10:17:49.144Z,190
2016-09-08T10:18:49.159Z,190
2016-09-08T10:19:49.472Z,190
2016-09-08T10:20:49.158Z,190
2016-09-08T10:21:49.165Z,190
2016-09-08T10:22:49.174Z,190
2016-09-08T10:23:49.174Z,190
2016-09-08T10:24:49.180Z,190
2016-09-08T10:25:49.507Z,190
2016-09-08T10:26:49.185Z,190
2016-09-08T10:27:49.516Z,190
2016-09-08T10:28:49.251Z,190
2016-09-08T10:29:49.200Z,190
2016-09-08T10:30:49.224Z,190
2016-09-08T10:31:49.221Z,190
2016-09-08T10:32:49.224Z,185
2016-09-08T10:33:49.227Z,185
2016-09-08T10:34:49.230Z,190
2016-09-08T10:35:49.234Z,185
2016-09-08T10:36:49.238Z,190
2016-09-08T10:37:49.244Z,190
2016-09-08T10:38:49.576Z,190
2016-09-08T10:39:49.265Z,185
2016-09-08T10:40:49.261Z,190
2016-09-08T10:41:49.268Z,185
2016-09-08T10:42:49.280Z,185
2016-09-08T10:43:49.289Z,185
2016-09-08T10:44:49.604Z,185
2016-09-08T10:45:49.289Z,185
2016-09-08T10:46:49.295Z,185
2016-09-08T10:47:49.608Z,185
2016-09-08T10:48:49.316Z,185
2016-09-08T10:49:49.309Z,185
2016-09-08T10:50:49.329Z,185
2016-09-08T10:51:49.327Z,185
2016-09-08T10:52:49.323Z,185
2016-09-08T10:53:49.336Z,185
2016-09-08T10:54:49.335Z,185
2016-09-08T10:55:49.341Z,185
2016-09-08T10:56:49.348Z,185
2016-09-08T10:57:49.364Z,185
2016-09-08T10:58:49.670Z,185
2016-09-08T10:59:49.365Z,185
2016-09-08T11:00:49.603Z,185
2016-09-08T11:01:49.372Z,180
2016-09-08T11:02:49.378Z,180
2016-09-08T11:03:49.394Z,180
2016-09-08T11:04:49.403Z,180
2016-09-08T11:05:49.401Z,180
2016-09-08T11:06:49.402Z,180
2016-09-08T11:07:49.411Z,180
2016-09-08T11:08:49.407Z,180
2016-09-08T11:09:49.425Z,180
2016-09-08T11:10:49.425Z,180
2016-09-08T11:11:49.429Z,180
2016-09-08T11:12:49.444Z,185
2016-09-08T11:13:49.444Z,180
2016-09-08T11:14:49.466Z,185
2016-09-08T11:15:49.453Z,185
2016-09-08T11:16:49.462Z,180
2016-09-08T11:17:49.718Z,180
2016-09-08T11:18:49.463Z,180
2016-09-08T11:19:49.485Z,185
2016-09-08T11:20:49.483Z,180
2016-09-08T11:21:49.490Z,180
2016-09-08T11:22:49.486Z,180
2016-09-08T11:23:49.499Z,180
2016-09-08T11:24:49.509Z,180
2016-09-08T11:25:49.518Z,180
2016-09-08T11:26:49.520Z,180
2016-09-08T11:27:49.769Z,180
2016-09-08T11:28:49.530Z,180
2016-09-08T11:29:49.549Z,185
2016-09-08T11:30:49.548Z,180
2016-09-08T11:31:49.549Z,180
2016-09-08T11:32:49.814Z,185
2016-09-08T11:33:49.555Z,190
2016-09-08T11:34:49.561Z,185
2016-09-08T11:35:49.578Z,185
2016-09-08T11:36:49.595Z,180
2016-09-08T11:37:49.600Z,180
2016-09-08T11:38:49.612Z,185
2016-09-08T11:39:49.596Z,180
2016-09-08T11:40:49.613Z,180
2016-09-08T11:41:49.774Z,180
2016-09-08T11:42:49.637Z,180
2016-09-08T11:43:49.637Z,180
2016-09-08T11:44:49.635Z,185
2016-09-08T11:45:49.630Z,180
2016-09-08T11:46:49.640Z,180
2016-09-08T11:47:49.641Z,180
2016-09-08T11:48:49.640Z,180
2016-09-08T11:49:49.655Z,180
2016-09-08T11:50:49.676Z,180
2016-09-08T11:51:49.656Z,180
2016-09-08T11:52:49.673Z,180
2016-09-08T11:53:49.674Z,180
2016-09-08T11:54:49.700Z,175
2016-09-08T11:55:49.726Z,175
2016-09-08T11:56:49.724Z,175
2016-09-08T11:57:49.695Z,175
2016-09-08T11:58:49.721Z,175
2016-09-08T11:59:50.024Z,175
2016-09-08T12:00:49.725Z,175
2016-09-08T12:01:49.727Z,175
2016-09-08T12:02:49.724Z,175
2016-09-08T12:03:50.044Z,175
2016-09-08T12:04:49.730Z,175
2016-09-08T12:05:49.745Z,175
2016-09-08T12:06:49.765Z,175
2016-09-08T12:07:49.765Z,175
2016-09-08T12:08:49.785Z,175
2016-09-08T12:09:49.770Z,175
2016-09-08T12:10:49.790Z,175
2016-09-08T12:11:49.792Z,175
2016-09-08T12:12:49.805Z,175
2016-09-08T12:13:49.788Z,175
2016-09-08T12:14:49.795Z,175
2016-09-08T12:15:49.812Z,175
2016-09-08T12:16:50.046Z,175
2016-09-08T12:17:49.816Z,175
2016-09-08T12:18:49.840Z,175
2016-09-08T12:19:49.832Z,175
2016-09-08T12:20:49.832Z,175
2016-09-08T12:21:49.830Z,170
2016-09-08T12:22:49.844Z,170
2016-09-08T12:23:49.853Z,170
2016-09-08T12:24:50.169Z,170
2016-09-08T12:25:49.855Z,170
2016-09-08T12:26:49.863Z,170
2016-09-08T12:27:49.868Z,170
2016-09-08T12:28:49.865Z,170
2016-09-08T12:29:50.254Z,170
2016-09-08T12:30:49.881Z,170
2016-09-08T12:31:49.898Z,170
2016-09-08T12:32:49.903Z,170
2016-09-08T12:33:49.907Z,170
2016-09-08T12:34:50.239Z,170
2016-09-08T12:35:49.911Z,170
2016-09-08T12:36:49.928Z,170
2016-09-08T12:37:49.929Z,170
2016-09-08T12:38:49.935Z,170
2016-09-08T12:39:49.931Z,170
2016-09-08T12:40:49.951Z,170
2016-09-08T12:41:50.190Z,170
2016-09-08T12:42:50.263Z,170
2016-09-08T12:43:49.955Z,170
2016-09-08T12:44:50.275Z,170
2016-09-08T12:45:49.987Z,165
2016-09-08T12:46:49.983Z,165
2016-09-08T12:47:49.994Z,165
2016-09-08T12:48:49.996Z,165
2016-09-08T12:49:50.010Z,165
2016-09-08T12:50:49.997Z,165
2016-09-08T12:51:50.006Z,165
2016-09-08T12:52:50.001Z,165
2016-09-08T12:53:50.022Z,165
2016-09-08T12:54:50.023Z,165
2016-09-08T12:55:50.037Z,165
2016-09-08T12:56:50.029Z,165
2016-09-08T12:57:50.038Z,165
2016-09-08T12:58:50.070Z,165
2016-09-08T12:59:50.068Z,165
2016-09-08T13:00:50.068Z,165
2016-09-08T13:01:50.060Z,165
2016-09-08T13:02:50.069Z,170
2016-09-08T13:03:50.068Z,165
2016-09-08T13:04:50.082Z,160
2016-09-08T13:05:50.097Z,160
2016-09-08T13:06:50.431Z,160
2016-09-08T13:07:50.338Z,160
2016-09-08T13:08:50.101Z,160
2016-09-08T13:09:50.107Z,160
2016-09-08T13:10:50.125Z,160
2016-09-08T13:11:50.131Z,160
2016-09-08T13:12:50.757Z,160
2016-09-08T13:13:50.129Z,160
2016-09-08T13:14:50.455Z,160
2016-09-08T13:15:50.154Z,160
2016-09-08T13:16:50.150Z,160
2016-09-08T13:17:50.157Z,160
2016-09-08T13:18:50.475Z,160
2016-09-08T13:19:50.179Z,160
2016-09-08T13:20:50.194Z,160
2016-09-08T13:21:50.190Z,160
2016-09-08T13:22:50.189Z,160
2016-09-08T13:23:50.204Z,160
2016-09-08T13:24:50.197Z,160
2016-09-08T13:25:50.210Z,160
2016-09-08T13:26:50.539Z,160
2016-09-08T13:27:50.215Z,160
2016-09-08T13:28:50.217Z,160
2016-09-08T13:29:50.227Z,160
2016-09-08T13:30:50.226Z,160
2016-09-08T13:31:50.239Z,160
2016-09-08T13:32:50.244Z,160
2016-09-08T13:33:50.253Z,155
2016-09-08T13:34:50.258Z,160
2016-09-08T13:35:50.262Z,160
2016-09-08T13:36:50.279Z,160
2016-09-08T13:37:50.590Z,160
2016-09-08T13:38:50.282Z,160
2016-09-08T13:39:50.292Z,160
2016-09-08T13:40:50.313Z,160
2016-09-08T13:41:50.298Z,160
2016-09-08T13:42:50.305Z,160
2016-09-08T13:43:50.305Z,155
2016-09-08T13:44:50.329Z,160
2016-09-08T13:45:50.334Z,160
2016-09-08T13:46:50.347Z,160
2016-09-08T13:47:50.329Z,155
2016-09-08T13:48:50.661Z,155
2016-09-08T13:49:50.348Z,155
2016-09-08T13:50:50.359Z,155
2016-09-08T13:51:50.389Z,155
2016-09-08T13:52:50.369Z,155
2016-09-08T13:53:50.372Z,155
2016-09-08T13:54:50.401Z,155
2016-09-08T13:55:50.536Z,155
2016-09-08T13:56:50.423Z,155
2016-09-08T13:57:50.412Z,155
2016-09-08T13:58:50.401Z,155
2016-09-08T13:59:50.407Z,155
2016-09-08T14:00:50.411Z,155
2016-09-08T14:01:50.416Z,155
2016-09-08T14:02:50.739Z,155
2016-09-08T14:03:50.457Z,155
2016-09-08T14:04:50.459Z,155
2016-09-08T14:05:50.451Z,155
2016-09-08T14:06:50.456Z,155
2016-09-08T14:07:50.475Z,155